富士山静岡空港METAR/TAF(約33km東):

RJNS 071200Z 31008KT 9999 FEW015 BKN180 BKN/// 08/05 Q1019

TAF RJNS 071106Z 0712/0818 28008KT 9999 FEW020 BECMG 0800/0803 16006KT BECMG 0809/0812 01005KT

ソアリング用気象予報:
BLIPMAP 中部地方
中部日本航空連盟および大野グライダークラブの支援により運営されているソアリング用気象予報BLIPMAPの中部地方版です。

風向風力(Windy.com):
スマホでの閲覧には、アプリ版Windy(Android/iOS)が適切です。

EGC Icon